Time;durP1;ratioP1;P1;durP2;ratioP2;P2;SDS_P1;SDS_P2;PMS_P1;PMS_P2;Temp;Humidity;BMP_temperature;BMP_pressure;BME280_temperature;BME280_humidity;BME280_pressure;Samples;Min_cycle;Max_cycle;Signal;HPM_P1;HPM_P2
2024/01/03 00:00:33;;;;;;;5.93;4.25;;;3.50;56.30;;;;;;5124313;27;20028;-79
2024/01/03 00:02:59;;;;;;;4.30;3.50;;;3.40;56.20;;;;;;5115254;28;20040;-79
2024/01/03 00:05:37;;;;;;;4.80;4.30;;;3.40;56.20;;;;;;5113630;28;20072;-79
2024/01/03 00:08:15;;;;;;;5.10;4.10;;;3.40;56.20;;;;;;5121626;27;20019;-79
2024/01/03 00:10:48;;;;;;;3.38;3.08;;;3.50;56.20;;;;;;5113220;28;20058;-79
2024/01/03 00:13:57;;;;;;;4.30;3.72;;;3.50;56.20;;;;;;5100908;27;20106;-80
2024/01/03 00:16:23;;;;;;;4.93;3.70;;;3.40;56.10;;;;;;5023427;28;20058;-81
2024/01/03 00:18:58;;;;;;;5.18;4.30;;;3.40;56.20;;;;;;5111495;28;20024;-80
2024/01/03 00:21:29;;;;;;;4.28;3.53;;;3.50;56.20;;;;;;5107141;28;20034;-79
2024/01/03 00:23:58;;;;;;;5.22;4.30;;;3.50;56.20;;;;;;5112644;27;20027;-80
2024/01/03 00:26:29;;;;;;;5.03;3.88;;;3.50;56.10;;;;;;5116889;27;20080;-80
2024/01/03 00:28:58;;;;;;;4.05;3.65;;;3.40;56.00;;;;;;5135180;27;20491;-81
2024/01/03 00:31:44;;;;;;;5.22;3.90;;;3.40;56.10;;;;;;5116764;28;20565;-79
2024/01/03 00:34:22;;;;;;;4.05;3.60;;;3.50;56.10;;;;;;5135077;27;20035;-78
2024/01/03 00:36:52;;;;;;;4.32;3.92;;;3.50;56.10;;;;;;5116672;28;20063;-80
2024/01/03 00:39:23;;;;;;;4.72;3.60;;;3.40;56.00;;;;;;5116609;28;20027;-78
2024/01/03 00:41:49;;;;;;;5.65;4.05;;;3.40;56.00;;;;;;5134868;28;20023;-79
2024/01/03 00:44:15;;;;;;;4.75;4.20;;;3.40;56.00;;;;;;5131967;27;20470;-81
2024/01/03 00:46:40;;;;;;;4.55;3.65;;;3.40;56.10;;;;;;5120370;28;20037;-80
2024/01/03 00:49:06;;;;;;;5.97;3.67;;;3.40;56.10;;;;;;5128348;28;20032;-79
2024/01/03 00:51:32;;;;;;;4.35;3.95;;;3.40;56.10;;;;;;5120461;28;20035;-80
2024/01/03 00:53:58;;;;;;;4.72;3.85;;;3.40;56.10;;;;;;5113043;28;20103;-80
2024/01/03 00:56:24;;;;;;;4.65;3.90;;;3.40;56.10;;;;;;5126266;27;20035;-78
2024/01/03 00:58:50;;;;;;;4.25;3.83;;;3.40;56.10;;;;;;5124287;27;20055;-79
2024/01/03 01:01:16;;;;;;;5.07;3.88;;;3.40;56.10;;;;;;5104486;28;20116;-80
2024/01/03 01:03:42;;;;;;;4.40;4.00;;;3.40;56.20;;;;;;5101819;28;20030;-80
2024/01/03 01:06:08;;;;;;;5.22;4.30;;;3.40;56.20;;;;;;5134720;28;20023;-80
2024/01/03 01:08:34;;;;;;;4.35;3.65;;;3.40;56.10;;;;;;5129339;28;20026;-81
2024/01/03 01:11:00;;;;;;;4.68;3.53;;;3.50;56.10;;;;;;5130652;28;20388;-79
2024/01/03 01:13:25;;;;;;;5.10;3.90;;;3.40;56.00;;;;;;5112407;28;20493;-80
2024/01/03 01:15:51;;;;;;;5.25;4.15;;;3.40;56.10;;;;;;5130173;27;20022;-79
2024/01/03 01:18:17;;;;;;;5.57;4.07;;;3.40;56.10;;;;;;5094899;28;20030;-78
2024/01/03 01:20:43;;;;;;;4.72;3.78;;;3.40;56.10;;;;;;5111693;28;20069;-79
2024/01/03 01:23:09;;;;;;;4.75;4.00;;;3.40;56.10;;;;;;5135116;27;20473;-79
2024/01/03 01:25:35;;;;;;;4.65;3.90;;;3.40;56.20;;;;;;5116690;28;20046;-79
2024/01/03 01:28:00;;;;;;;4.07;3.58;;;3.40;56.70;;;;;;5118207;27;20461;-80
2024/01/03 01:30:26;;;;;;;4.90;4.07;;;3.40;56.10;;;;;;5138365;27;20031;-80
2024/01/03 01:32:52;;;;;;;5.10;4.13;;;3.40;56.20;;;;;;5136400;27;20023;-80
2024/01/03 01:35:18;;;;;;;6.13;4.07;;;3.40;56.10;;;;;;5136288;27;20023;-80
2024/01/03 01:37:44;;;;;;;5.47;4.30;;;3.30;56.10;;;;;;5119700;27;20496;-81
2024/01/03 01:40:11;;;;;;;5.53;4.30;;;3.30;56.10;;;;;;5128285;27;20460;-79
2024/01/03 01:42:39;;;;;;;5.05;4.03;;;3.30;56.10;;;;;;5137999;27;20465;-79
2024/01/03 01:45:06;;;;;;;5.75;4.63;;;3.30;56.10;;;;;;5116447;28;20020;-79
2024/01/03 01:47:32;;;;;;;4.82;3.97;;;3.30;56.10;;;;;;5117404;27;20488;-80
2024/01/03 01:49:58;;;;;;;5.18;3.90;;;3.30;56.10;;;;;;5128694;27;20023;-79
2024/01/03 01:52:23;;;;;;;5.32;4.18;;;3.30;56.10;;;;;;5137992;27;20037;-78
2024/01/03 01:54:49;;;;;;;6.10;4.47;;;3.30;56.10;;;;;;5125868;27;20481;-79
2024/01/03 01:57:16;;;;;;;4.82;4.00;;;3.30;56.10;;;;;;5128158;27;20035;-79
2024/01/03 01:59:43;;;;;;;4.97;3.83;;;3.30;56.10;;;;;;5133203;27;20088;-79
2024/01/03 02:02:09;;;;;;;5.03;4.15;;;3.30;56.10;;;;;;5115372;28;20089;-79
2024/01/03 02:04:36;;;;;;;5.18;4.35;;;3.30;56.20;;;;;;5117278;28;20054;-79
2024/01/03 02:07:03;;;;;;;5.28;4.18;;;3.30;56.20;;;;;;5115736;28;20114;-80
2024/01/03 02:09:29;;;;;;;4.90;4.20;;;3.30;56.20;;;;;;5112334;28;20036;-81
2024/01/03 02:11:55;;;;;;;4.97;4.25;;;3.30;56.20;;;;;;5117267;28;20027;-81
2024/01/03 02:14:21;;;;;;;4.78;3.92;;;3.30;56.20;;;;;;5115664;27;20412;-79
2024/01/03 02:16:46;;;;;;;4.80;3.90;;;3.30;56.20;;;;;;5121792;27;20023;-79
2024/01/03 02:19:12;;;;;;;4.95;4.38;;;3.30;56.10;;;;;;5125176;27;20469;-80
2024/01/03 02:21:38;;;;;;;5.38;4.40;;;3.30;56.10;;;;;;5135576;27;20035;-80
2024/01/03 02:24:03;;;;;;;5.13;4.32;;;3.30;56.20;;;;;;5124015;27;20031;-80
2024/01/03 02:26:29;;;;;;;5.18;4.30;;;3.30;56.10;;;;;;5115061;28;20027;-80
2024/01/03 02:28:55;;;;;;;4.75;4.18;;;3.30;56.10;;;;;;5116708;28;20523;-80
2024/01/03 02:31:21;;;;;;;5.15;3.80;;;3.30;56.20;;;;;;5116781;28;20065;-79
2024/01/03 02:33:47;;;;;;;5.15;4.20;;;3.30;56.20;;;;;;5117389;27;20042;-79
2024/01/03 02:36:13;;;;;;;6.13;4.57;;;3.30;56.20;;;;;;5118852;27;20461;-79
2024/01/03 02:38:42;;;;;;;5.35;4.47;;;3.30;56.20;;;;;;5136275;27;20019;-79
2024/01/03 02:41:07;;;;;;;4.72;3.83;;;3.30;56.20;;;;;;5137181;27;20110;-78
2024/01/03 02:43:33;;;;;;;5.00;4.32;;;3.30;56.20;;;;;;5129765;27;20106;-79
2024/01/03 02:45:59;;;;;;;5.28;4.30;;;3.30;56.20;;;;;;5116242;27;20550;-79
2024/01/03 02:48:25;;;;;;;5.45;4.40;;;3.30;56.30;;;;;;5120942;27;20019;-80
2024/01/03 02:50:50;;;;;;;5.25;4.43;;;3.30;56.20;;;;;;5114392;28;20043;-79
2024/01/03 02:53:16;;;;;;;5.15;4.65;;;3.40;56.30;;;;;;5116267;28;20099;-79
2024/01/03 02:55:42;;;;;;;5.47;4.40;;;3.40;56.20;;;;;;5118108;27;20031;-80
2024/01/03 02:58:07;;;;;;;6.65;4.30;;;3.40;56.30;;;;;;5117867;27;20110;-79
2024/01/03 03:00:36;;;;;;;5.13;4.20;;;3.40;56.20;;;;;;5116516;28;20374;-80
2024/01/03 03:03:02;;;;;;;5.75;4.53;;;3.40;56.20;;;;;;5116209;28;20489;-79
2024/01/03 03:05:27;;;;;;;5.82;4.45;;;3.40;56.20;;;;;;5129145;27;20054;-78
2024/01/03 03:07:53;;;;;;;5.05;4.10;;;3.40;56.20;;;;;;5136442;27;20023;-79
2024/01/03 03:10:19;;;;;;;6.00;4.38;;;3.40;56.20;;;;;;5132086;27;20027;-80
2024/01/03 03:12:45;;;;;;;6.15;4.60;;;3.40;56.30;;;;;;5114519;28;20114;-80
2024/01/03 03:15:11;;;;;;;6.05;4.65;;;3.40;56.20;;;;;;5117330;27;20148;-80
2024/01/03 03:17:37;;;;;;;6.85;4.93;;;3.40;56.30;;;;;;5136329;27;20027;-80
2024/01/03 03:20:03;;;;;;;5.40;4.60;;;3.40;56.30;;;;;;5136195;27;20457;-80
2024/01/03 03:22:28;;;;;;;6.10;4.43;;;3.40;56.30;;;;;;5117383;27;20102;-79
2024/01/03 03:24:54;;;;;;;5.88;4.63;;;3.40;56.30;;;;;;5136306;27;20024;-79
2024/01/03 03:27:20;;;;;;;6.07;4.72;;;3.50;56.40;;;;;;5117289;27;20027;-79
2024/01/03 03:29:46;;;;;;;5.45;4.35;;;3.50;56.30;;;;;;5136442;27;20027;-80
2024/01/03 03:32:11;;;;;;;6.15;4.68;;;3.40;56.20;;;;;;5128091;27;20397;-80
2024/01/03 03:34:37;;;;;;;5.70;4.25;;;3.40;56.20;;;;;;5114120;28;20028;-80
2024/01/03 03:37:04;;;;;;;5.65;4.40;;;3.40;56.30;;;;;;5116721;27;20049;-78
2024/01/03 03:39:30;;;;;;;6.63;4.55;;;3.40;56.30;;;;;;5119405;27;20088;-81
2024/01/03 03:41:55;;;;;;;4.82;4.00;;;3.40;56.30;;;;;;5115530;28;20027;-81
2024/01/03 03:44:21;;;;;;;6.15;4.82;;;3.40;56.40;;;;;;5124999;27;20019;-80
2024/01/03 03:46:47;;;;;;;5.60;4.65;;;3.40;56.40;;;;;;5135839;27;20027;-80
2024/01/03 03:49:13;;;;;;;5.55;4.50;;;3.40;56.40;;;;;;5134922;27;20036;-80
2024/01/03 03:51:38;;;;;;;5.25;4.10;;;3.40;56.40;;;;;;5129562;27;20031;-78
2024/01/03 03:54:04;;;;;;;5.07;4.00;;;3.40;56.40;;;;;;5119724;27;20350;-78
2024/01/03 03:56:30;;;;;;;5.10;4.15;;;3.40;56.40;;;;;;5111734;27;20038;-80
2024/01/03 03:58:56;;;;;;;7.35;5.45;;;3.40;56.40;;;;;;5113863;28;20036;-79
2024/01/03 04:01:22;;;;;;;5.15;4.20;;;3.40;56.40;;;;;;5114598;27;20023;-78
2024/01/03 04:03:48;;;;;;;5.60;4.13;;;3.40;56.40;;;;;;5131960;27;20028;-79
2024/01/03 04:06:15;;;;;;;6.35;4.60;;;3.40;56.40;;;;;;5099917;28;20092;-79
2024/01/03 04:08:45;;;;;;;6.00;4.53;;;3.40;56.30;;;;;;5113446;28;20026;-80
2024/01/03 04:11:11;;;;;;;5.80;4.43;;;3.40;56.30;;;;;;5116374;27;20044;-79
2024/01/03 04:13:38;;;;;;;6.03;4.60;;;3.40;56.30;;;;;;5133598;27;20457;-80
2024/01/03 04:16:08;;;;;;;5.45;4.45;;;3.40;56.40;;;;;;5120313;27;20382;-80
2024/01/03 04:18:34;;;;;;;4.82;4.13;;;3.40;56.40;;;;;;5116015;27;20079;-79
2024/01/03 04:21:05;;;;;;;5.68;4.72;;;3.40;56.40;;;;;;5113169;28;20036;-80
2024/01/03 04:23:31;;;;;;;4.97;4.22;;;3.40;56.30;;;;;;5119553;27;20038;-79
2024/01/03 04:25:56;;;;;;;5.22;4.45;;;3.40;56.40;;;;;;5116959;28;20023;-79
2024/01/03 04:28:22;;;;;;;6.07;4.80;;;3.30;56.30;;;;;;5122101;27;20023;-79
2024/01/03 04:30:48;;;;;;;5.53;4.30;;;3.30;56.30;;;;;;5114606;28;20032;-79
2024/01/03 04:33:14;;;;;;;6.28;4.35;;;3.30;56.30;;;;;;5113058;28;20036;-80
2024/01/03 04:35:39;;;;;;;6.20;4.43;;;3.30;56.40;;;;;;5132219;28;20050;-81
2024/01/03 04:38:05;;;;;;;6.45;5.07;;;3.30;56.40;;;;;;5116614;28;20028;-80
2024/01/03 04:40:32;;;;;;;5.57;4.80;;;3.30;56.40;;;;;;5126949;28;20387;-79
2024/01/03 04:42:58;;;;;;;5.85;4.97;;;3.30;56.40;;;;;;5107746;28;20516;-81
2024/01/03 04:45:24;;;;;;;6.13;4.80;;;3.30;56.50;;;;;;5109143;28;20100;-78
2024/01/03 04:47:50;;;;;;;5.60;4.60;;;3.40;56.50;;;;;;5124452;28;20035;-80
2024/01/03 04:50:17;;;;;;;5.75;4.70;;;3.40;56.40;;;;;;5108664;28;20035;-80
2024/01/03 04:52:43;;;;;;;6.22;4.40;;;3.40;56.50;;;;;;5118342;28;20114;-79
2024/01/03 04:55:10;;;;;;;5.93;4.70;;;3.40;56.40;;;;;;5114502;28;20346;-80
2024/01/03 04:57:36;;;;;;;6.65;5.07;;;3.40;56.40;;;;;;5114331;28;20024;-80
2024/01/03 05:00:04;;;;;;;6.40;5.15;;;3.40;56.40;;;;;;5114844;28;20028;-80
2024/01/03 05:02:30;;;;;;;7.15;5.30;;;3.40;56.40;;;;;;5119414;27;20047;-79
2024/01/03 05:04:56;;;;;;;6.88;4.75;;;3.40;56.40;;;;;;5139121;27;20030;-81
2024/01/03 05:07:22;;;;;;;6.30;4.80;;;3.40;56.40;;;;;;5139183;27;20027;-79
2024/01/03 05:09:48;;;;;;;6.25;4.97;;;3.40;56.40;;;;;;5120538;27;20392;-79
2024/01/03 05:12:14;;;;;;;6.03;4.85;;;3.40;56.40;;;;;;5136030;27;20031;-80
2024/01/03 05:14:40;;;;;;;5.20;4.32;;;3.40;56.40;;;;;;5117962;27;20042;-79
2024/01/03 05:17:05;;;;;;;6.95;5.07;;;3.40;56.40;;;;;;5118220;28;20474;-79
2024/01/03 05:19:31;;;;;;;6.85;5.32;;;3.40;56.40;;;;;;5117870;27;20103;-80
2024/01/03 05:21:57;;;;;;;6.40;5.30;;;3.40;56.50;;;;;;5120637;27;20031;-80
2024/01/03 05:24:22;;;;;;;6.40;4.80;;;3.40;56.40;;;;;;5118309;27;20028;-80
2024/01/03 05:26:48;;;;;;;6.88;4.85;;;3.40;56.40;;;;;;5119117;27;20439;-80
2024/01/03 05:29:14;;;;;;;6.55;5.20;;;3.40;56.40;;;;;;5129174;27;20020;-79
2024/01/03 05:31:40;;;;;;;6.50;5.38;;;3.30;56.40;;;;;;5118112;27;20507;-79
2024/01/03 05:34:07;;;;;;;6.90;5.13;;;3.30;56.40;;;;;;5119709;27;20495;-80
2024/01/03 05:36:32;;;;;;;6.57;4.90;;;3.30;56.50;;;;;;5138409;27;20057;-80
2024/01/03 05:38:58;;;;;;;6.57;4.82;;;3.30;56.50;;;;;;5126781;27;20043;-79
2024/01/03 05:41:24;;;;;;;5.63;4.70;;;3.30;56.50;;;;;;5118042;27;20453;-79
2024/01/03 05:43:50;;;;;;;7.03;4.88;;;3.30;56.50;;;;;;5117406;27;20496;-80
2024/01/03 05:46:15;;;;;;;5.85;4.90;;;3.30;56.50;;;;;;5118475;27;20431;-80
2024/01/03 05:48:42;;;;;;;6.50;5.15;;;3.40;56.60;;;;;;5117386;27;20415;-81
2024/01/03 05:51:08;;;;;;;6.57;5.28;;;3.30;56.50;;;;;;5121947;27;20035;-80
2024/01/03 05:53:34;;;;;;;7.07;5.30;;;3.30;56.60;;;;;;5118807;27;20064;-82
2024/01/03 05:56:00;;;;;;;7.47;4.97;;;3.30;56.60;;;;;;5117525;28;20419;-79
2024/01/03 05:58:26;;;;;;;7.72;5.57;;;3.30;56.60;;;;;;5118503;27;20051;-81
2024/01/03 06:00:52;;;;;;;7.57;5.63;;;3.30;56.60;;;;;;5116826;27;20456;-80
2024/01/03 06:03:18;;;;;;;13.52;6.78;;;3.30;56.60;;;;;;5119052;27;20055;-81
2024/01/03 06:05:44;;;;;;;13.02;7.03;;;3.30;56.60;;;;;;5134875;27;20110;-80
2024/01/03 06:08:10;;;;;;;17.00;8.93;;;3.30;56.70;;;;;;5116703;27;20027;-80
2024/01/03 06:10:36;;;;;;;23.88;10.45;;;3.40;56.70;;;;;;5137265;27;20031;-79
2024/01/03 06:13:02;;;;;;;28.10;12.80;;;3.40;56.70;;;;;;5119321;27;20087;-79
2024/01/03 06:15:28;;;;;;;36.70;15.02;;;3.40;56.70;;;;;;5134470;27;20461;-79
2024/01/03 06:17:53;;;;;;;33.95;12.77;;;3.40;56.70;;;;;;5127923;27;20122;-80
2024/01/03 06:20:19;;;;;;;35.30;14.10;;;3.40;56.70;;;;;;5128910;27;20376;-80
2024/01/03 06:22:45;;;;;;;40.72;17.45;;;3.40;56.70;;;;;;5116925;28;20377;-80
2024/01/03 06:25:11;;;;;;;40.92;14.93;;;3.40;56.70;;;;;;5117463;27;20027;-79
2024/01/03 06:27:37;;;;;;;30.65;12.95;;;3.40;56.70;;;;;;5117073;28;20355;-80
2024/01/03 06:30:03;;;;;;;42.28;15.80;;;3.40;56.70;;;;;;5117685;27;20039;-80
2024/01/03 06:32:28;;;;;;;41.20;18.25;;;3.40;56.80;;;;;;5129185;27;20054;-79
2024/01/03 06:34:54;;;;;;;39.00;14.65;;;3.40;56.80;;;;;;5131583;27;20058;-80
2024/01/03 06:37:20;;;;;;;36.05;15.98;;;3.40;56.80;;;;;;5116751;28;20160;-79
2024/01/03 06:39:46;;;;;;;34.45;14.85;;;3.50;56.80;;;;;;5116413;28;20386;-81
2024/01/03 06:42:11;;;;;;;36.85;15.98;;;3.50;56.80;;;;;;5118322;27;20461;-80
2024/01/03 06:44:37;;;;;;;41.08;17.27;;;3.50;56.80;;;;;;5133941;27;20024;-80
2024/01/03 06:47:03;;;;;;;36.75;14.93;;;3.50;56.80;;;;;;5117833;27;20106;-80
2024/01/03 06:49:29;;;;;;;32.60;16.08;;;3.60;56.90;;;;;;5125856;27;20027;-78
2024/01/03 06:51:57;;;;;;;35.20;16.63;;;3.50;56.80;;;;;;5115968;28;20036;-79
2024/01/03 06:54:22;;;;;;;35.10;14.30;;;3.60;56.90;;;;;;5131881;27;20079;-78
2024/01/03 06:56:48;;;;;;;33.17;14.95;;;3.60;56.80;;;;;;5136355;27;20035;-79
2024/01/03 06:59:14;;;;;;;41.70;17.48;;;3.60;56.80;;;;;;5135289;27;20442;-79
2024/01/03 07:01:39;;;;;;;31.50;13.55;;;3.60;56.80;;;;;;5103695;28;20537;-78
2024/01/03 07:04:05;;;;;;;34.40;15.93;;;3.70;56.90;;;;;;5124940;27;20107;-77
2024/01/03 07:06:31;;;;;;;30.00;13.65;;;3.70;56.80;;;;;;5123450;27;20456;-78
2024/01/03 07:08:57;;;;;;;28.00;13.65;;;3.70;56.80;;;;;;5135598;27;20023;-78
2024/01/03 07:11:22;;;;;;;32.15;14.65;;;3.70;56.80;;;;;;5129882;27;20031;-77
2024/01/03 07:13:48;;;;;;;28.23;13.40;;;3.80;56.80;;;;;;5113985;28;20055;-78
2024/01/03 07:16:15;;;;;;;28.25;12.65;;;3.70;56.70;;;;;;5115898;28;20023;-76
2024/01/03 07:18:42;;;;;;;32.50;13.20;;;3.80;56.70;;;;;;5115436;28;20062;-79
2024/01/03 07:21:08;;;;;;;24.98;13.07;;;3.80;56.70;;;;;;5116956;27;20082;-78
2024/01/03 07:23:36;;;;;;;21.30;11.30;;;3.80;56.70;;;;;;5121618;27;20465;-77
2024/01/03 07:26:02;;;;;;;24.67;12.00;;;3.80;56.70;;;;;;5127041;27;20030;-81
2024/01/03 07:28:28;;;;;;;24.55;11.32;;;3.80;56.70;;;;;;5121012;28;20382;-78
2024/01/03 07:30:54;;;;;;;20.45;10.50;;;3.80;56.70;;;;;;5127724;27;20038;-75
2024/01/03 07:33:19;;;;;;;23.85;12.20;;;3.80;56.60;;;;;;5109034;28;20580;-78
2024/01/03 07:35:45;;;;;;;21.98;11.40;;;3.80;56.60;;;;;;5096836;28;20114;-79
2024/01/03 07:38:11;;;;;;;20.75;10.50;;;3.80;56.70;;;;;;5114129;27;20032;-77
2024/01/03 07:40:36;;;;;;;20.15;10.88;;;3.80;56.80;;;;;;5113308;28;20069;-79
2024/01/03 07:43:02;;;;;;;17.65;9.63;;;3.80;56.80;;;;;;5114094;28;20023;-74
2024/01/03 07:45:28;;;;;;;23.08;12.27;;;3.80;56.80;;;;;;5129544;27;20023;-74
2024/01/03 07:47:54;;;;;;;19.67;12.32;;;3.90;56.80;;;;;;5135715;27;20027;-74
2024/01/03 07:50:20;;;;;;;18.00;10.10;;;3.90;56.80;;;;;;5113211;28;20027;-73
2024/01/03 07:52:45;;;;;;;19.02;9.82;;;3.90;56.70;;;;;;5114167;27;20466;-72
2024/01/03 07:55:12;;;;;;;16.52;9.80;;;3.90;56.70;;;;;;5135117;27;20027;-74
2024/01/03 07:57:38;;;;;;;17.08;10.20;;;3.90;56.80;;;;;;5113026;27;20031;-73
2024/01/03 08:00:04;;;;;;;17.08;10.15;;;3.90;56.80;;;;;;5114698;28;20032;-76
2024/01/03 08:02:30;;;;;;;16.65;9.93;;;3.90;56.70;;;;;;5103539;27;20047;-81
2024/01/03 08:04:56;;;;;;;14.48;8.57;;;3.90;56.70;;;;;;5116745;27;20023;-79
2024/01/03 08:07:21;;;;;;;14.15;8.60;;;3.90;56.70;;;;;;5116693;27;20099;-77
2024/01/03 08:09:47;;;;;;;12.05;8.43;;;3.90;56.70;;;;;;5133343;27;20039;-76
2024/01/03 08:12:13;;;;;;;54.08;34.90;;;3.90;56.70;;;;;;5108353;27;20036;-88
2024/01/03 08:14:39;;;;;;;173.02;117.75;;;4.00;57.00;;;;;;5136544;27;20350;-80
2024/01/03 08:17:05;;;;;;;150.60;98.70;;;4.00;57.30;;;;;;5115317;27;20033;-77
2024/01/03 08:19:31;;;;;;;82.38;47.08;;;4.00;57.40;;;;;;5113085;28;20027;-80
2024/01/03 08:21:57;;;;;;;40.80;22.20;;;4.10;57.20;;;;;;5112784;28;20386;-80
2024/01/03 08:24:23;;;;;;;32.72;18.48;;;4.10;57.10;;;;;;5078223;28;21326;-81
2024/01/03 08:26:49;;;;;;;21.50;13.05;;;4.10;57.00;;;;;;5111683;27;20111;-82
2024/01/03 08:29:15;;;;;;;16.98;10.85;;;4.00;57.00;;;;;;5094077;28;20457;-82
2024/01/03 08:31:40;;;;;;;14.95;10.20;;;4.00;57.00;;;;;;5094355;28;20065;-82
2024/01/03 08:34:07;;;;;;;13.27;9.25;;;4.00;57.10;;;;;;5095761;28;20092;-79
2024/01/03 08:36:45;;;;;;;11.90;7.88;;;3.90;57.10;;;;;;5093715;28;20024;-80
2024/01/03 08:39:11;;;;;;;10.85;7.43;;;3.90;57.20;;;;;;5094407;28;20114;-79
2024/01/03 08:41:37;;;;;;;11.23;7.35;;;3.90;57.20;;;;;;5115929;28;20103;-75
2024/01/03 08:44:07;;;;;;;11.27;7.47;;;3.90;57.20;;;;;;5100676;28;20035;-84
2024/01/03 08:46:39;;;;;;;9.85;7.18;;;3.90;57.30;;;;;;5112049;27;20381;-78
2024/01/03 08:49:04;;;;;;;10.00;6.95;;;3.90;57.30;;;;;;5094997;28;20023;-78
2024/01/03 08:51:30;;;;;;;17.63;11.20;;;3.90;57.30;;;;;;5096539;28;20042;-77
2024/01/03 08:53:56;;;;;;;142.45;83.30;;;3.90;57.40;;;;;;5114590;28;20034;-84
2024/01/03 08:56:23;;;;;;;124.03;84.53;;;3.90;57.70;;;;;;5094861;28;20079;-80
2024/01/03 08:58:49;;;;;;;122.78;72.47;;;4.00;58.00;;;;;;5094841;28;20043;-81
2024/01/03 09:01:16;;;;;;;88.22;52.70;;;4.00;57.90;;;;;;5113337;28;20027;-81
2024/01/03 09:03:43;;;;;;;77.53;48.95;;;4.10;57.80;;;;;;5095275;28;20028;-80
2024/01/03 09:06:09;;;;;;;65.88;42.22;;;4.20;57.70;;;;;;5112676;28;20063;-79
2024/01/03 09:08:35;;;;;;;48.35;30.55;;;4.30;57.60;;;;;;5113213;28;20054;-77
2024/01/03 09:11:00;;;;;;;36.95;22.50;;;4.40;57.60;;;;;;5113330;28;20046;-83
2024/01/03 09:13:28;;;;;;;36.80;20.05;;;4.40;57.40;;;;;;5099630;28;20122;-85
2024/01/03 09:15:53;;;;;;;25.70;16.90;;;4.50;57.30;;;;;;5100596;28;20028;-86
2024/01/03 09:18:19;;;;;;;22.45;13.13;;;4.50;57.20;;;;;;5102856;28;20465;-85
2024/01/03 09:20:45;;;;;;;17.08;11.23;;;4.60;57.10;;;;;;5116430;28;20042;-86
2024/01/03 09:23:11;;;;;;;17.45;9.85;;;4.60;57.10;;;;;;5116139;28;20031;-85
2024/01/03 09:25:37;;;;;;;12.45;8.10;;;4.70;57.00;;;;;;5116203;28;20027;-85
2024/01/03 09:28:02;;;;;;;11.27;8.55;;;4.70;57.00;;;;;;5116419;28;20024;-83
2024/01/03 09:30:28;;;;;;;11.98;7.65;;;4.70;56.90;;;;;;5116686;28;20106;-85
2024/01/03 09:32:54;;;;;;;12.88;8.00;;;4.80;56.90;;;;;;5116432;28;20424;-85
2024/01/03 09:35:20;;;;;;;9.73;7.00;;;4.80;56.80;;;;;;5116143;28;20027;-85
2024/01/03 09:37:46;;;;;;;10.45;7.05;;;4.70;56.80;;;;;;5098329;28;20035;-84
2024/01/03 09:40:12;;;;;;;9.05;6.72;;;4.80;56.80;;;;;;5098712;28;20066;-85
2024/01/03 09:42:38;;;;;;;11.40;7.78;;;4.70;56.80;;;;;;5097975;28;20553;-84
2024/01/03 09:45:05;;;;;;;10.75;7.18;;;4.70;56.80;;;;;;5115473;28;20024;-86
2024/01/03 09:47:31;;;;;;;10.07;7.20;;;4.70;56.80;;;;;;5098446;28;20036;-84
2024/01/03 09:49:57;;;;;;;8.70;5.85;;;4.70;56.90;;;;;;5106539;27;20381;-82
2024/01/03 09:52:23;;;;;;;11.30;6.53;;;4.80;56.90;;;;;;5118983;28;20122;-84
2024/01/03 09:54:50;;;;;;;10.20;6.55;;;4.80;56.90;;;;;;5119555;27;20028;-82
2024/01/03 09:57:18;;;;;;;8.82;6.45;;;4.80;56.90;;;;;;5122739;27;20030;-83
2024/01/03 09:59:44;;;;;;;8.23;5.95;;;4.80;56.90;;;;;;5123679;27;20063;-84
2024/01/03 10:02:12;;;;;;;9.63;6.60;;;4.90;56.90;;;;;;5134257;27;20068;-84
2024/01/03 10:04:43;;;;;;;9.30;6.43;;;4.90;56.80;;;;;;5120876;28;20370;-85
2024/01/03 10:07:09;;;;;;;8.07;6.32;;;4.90;56.80;;;;;;5121971;27;20027;-83
2024/01/03 10:09:45;;;;;;;8.60;6.47;;;5.00;56.80;;;;;;5117878;28;20024;-84
2024/01/03 10:12:16;;;;;;;10.25;6.75;;;5.00;56.80;;;;;;5116709;28;20034;-84
2024/01/03 10:14:42;;;;;;;8.90;6.07;;;5.00;56.80;;;;;;5120535;28;20111;-85
2024/01/03 10:17:09;;;;;;;11.65;7.88;;;5.00;56.70;;;;;;5127020;27;20054;-85
2024/01/03 10:19:35;;;;;;;11.45;7.32;;;5.10;56.70;;;;;;5120991;28;20022;-84
2024/01/03 10:22:02;;;;;;;8.88;6.53;;;5.10;56.70;;;;;;5118580;28;20376;-86
2024/01/03 10:24:29;;;;;;;8.75;6.32;;;5.20;56.60;;;;;;5135018;27;20076;-84
2024/01/03 10:26:55;;;;;;;8.93;6.45;;;5.20;56.60;;;;;;5122156;27;20059;-83
2024/01/03 10:29:21;;;;;;;9.18;6.38;;;5.20;56.60;;;;;;5124212;27;20038;-85
2024/01/03 10:31:48;;;;;;;9.82;6.63;;;5.20;56.50;;;;;;5130392;27;20031;-83
2024/01/03 10:34:21;;;;;;;9.70;6.72;;;5.20;56.50;;;;;;5121890;27;20031;-85
2024/01/03 10:36:47;;;;;;;8.40;6.13;;;5.20;56.50;;;;;;5122223;27;20122;-85
2024/01/03 10:39:19;;;;;;;8.93;6.53;;;5.20;56.50;;;;;;5121455;27;20377;-83
2024/01/03 10:41:46;;;;;;;9.90;6.65;;;5.20;56.50;;;;;;5124273;27;20479;-83
2024/01/03 10:44:17;;;;;;;9.93;6.68;;;5.20;56.50;;;;;;5128538;27;20539;-83
2024/01/03 10:46:44;;;;;;;7.90;6.15;;;5.20;56.50;;;;;;5141140;27;20048;-84
2024/01/03 10:49:10;;;;;;;8.65;6.40;;;5.20;56.50;;;;;;5140090;27;20559;-84
2024/01/03 10:51:48;;;;;;;9.27;6.07;;;5.20;56.60;;;;;;5138765;27;20128;-84
2024/01/03 10:54:16;;;;;;;10.18;6.70;;;5.20;56.60;;;;;;5119240;27;20039;-83
2024/01/03 10:56:47;;;;;;;8.00;6.45;;;5.20;56.60;;;;;;5131992;27;20046;-85
2024/01/03 10:59:14;;;;;;;9.80;6.82;;;5.20;56.60;;;;;;5119519;27;20433;-80
2024/01/03 11:01:52;;;;;;;9.75;6.93;;;5.20;56.70;;;;;;5099331;28;20075;-86
2024/01/03 11:04:36;;;;;;;7.93;6.05;;;5.20;56.80;;;;;;5119699;27;20103;-85
2024/01/03 11:07:11;;;;;;;8.63;6.30;;;5.30;56.80;;;;;;5114985;27;20028;-80
2024/01/03 11:09:37;;;;;;;9.20;6.43;;;5.30;56.80;;;;;;5102074;28;20039;-83
2024/01/03 11:12:08;;;;;;;8.52;5.93;;;5.30;56.80;;;;;;5104613;28;20034;-79
2024/01/03 11:14:34;;;;;;;8.25;5.72;;;5.30;56.80;;;;;;5100908;28;20475;-82
2024/01/03 11:17:00;;;;;;;8.60;6.07;;;5.30;56.90;;;;;;5115487;28;20182;-82
2024/01/03 11:19:32;;;;;;;14.80;9.73;;;5.30;56.80;;;;;;5097348;28;20114;-82
2024/01/03 11:22:03;;;;;;;8.77;6.88;;;5.40;60.20;;;;;;5097758;28;20420;-80
2024/01/03 11:24:28;;;;;;;10.05;7.47;;;5.50;60.80;;;;;;5100795;28;20076;-79
2024/01/03 11:26:55;;;;;;;8.85;6.70;;;5.70;60.50;;;;;;5103822;27;20023;-81
2024/01/03 11:29:36;;;;;;;8.32;6.20;;;5.70;60.30;;;;;;5118110;27;20032;-75
2024/01/03 11:32:14;;;;;;;7.88;5.93;;;5.70;60.10;;;;;;5116138;27;20038;-77
2024/01/03 11:34:41;;;;;;;8.00;6.05;;;5.80;59.90;;;;;;5098211;28;20075;-76
2024/01/03 11:37:27;;;;;;;9.38;6.97;;;5.70;59.60;;;;;;5098545;28;20028;-77
2024/01/03 11:39:54;;;;;;;8.20;6.13;;;5.70;59.50;;;;;;5096504;28;20027;-76
2024/01/03 11:42:31;;;;;;;8.50;6.45;;;5.70;59.30;;;;;;5115704;27;20027;-76
2024/01/03 11:45:11;;;;;;;8.60;6.28;;;5.60;59.20;;;;;;5095042;28;20026;-76
2024/01/03 11:47:48;;;;;;;8.25;6.13;;;5.50;59.10;;;;;;5113056;28;20015;-75
2024/01/03 11:50:16;;;;;;;9.75;6.22;;;5.50;59.10;;;;;;5096116;28;20466;-77
2024/01/03 11:52:47;;;;;;;8.57;6.20;;;5.40;59.20;;;;;;5099360;27;20019;-78
2024/01/03 11:55:16;;;;;;;13.52;6.25;;;5.30;59.20;;;;;;5112162;27;20531;-78
2024/01/03 11:57:48;;;;;;;10.40;6.95;;;5.30;59.20;;;;;;5096543;28;20385;-76
2024/01/03 12:00:20;;;;;;;10.85;6.55;;;5.20;59.30;;;;;;5098195;28;20043;-79
2024/01/03 12:02:56;;;;;;;25.77;16.08;;;5.20;59.30;;;;;;5117156;27;20126;-79
2024/01/03 12:05:24;;;;;;;67.63;47.25;;;5.30;64.00;;;;;;5115051;27;20037;-78
2024/01/03 12:07:52;;;;;;;44.05;33.38;;;5.50;64.70;;;;;;5099701;27;20027;-79
2024/01/03 12:10:19;;;;;;;29.05;23.52;;;5.70;63.80;;;;;;5115264;27;20027;-78
2024/01/03 12:12:46;;;;;;;28.70;19.50;;;5.90;63.10;;;;;;5095459;28;20023;-76
2024/01/03 12:15:23;;;;;;;25.60;17.88;;;6.00;62.70;;;;;;5114040;28;20047;-78
2024/01/03 12:17:49;;;;;;;18.45;12.30;;;6.00;62.40;;;;;;5116165;27;20111;-78
2024/01/03 12:20:18;;;;;;;14.77;10.73;;;6.00;61.90;;;;;;5113960;28;20024;-79
2024/01/03 12:22:44;;;;;;;12.18;9.43;;;5.90;61.70;;;;;;5097664;28;20023;-77
2024/01/03 12:25:26;;;;;;;11.77;7.70;;;5.90;61.50;;;;;;5116070;27;20381;-81
2024/01/03 12:27:58;;;;;;;10.77;7.32;;;5.80;61.50;;;;;;5112856;28;20020;-78
2024/01/03 12:30:24;;;;;;;9.23;7.00;;;5.80;61.40;;;;;;5093116;28;20526;-78
2024/01/03 12:32:50;;;;;;;8.55;6.30;;;5.80;61.60;;;;;;5095413;28;20063;-77
2024/01/03 12:35:17;;;;;;;9.88;6.47;;;5.80;61.20;;;;;;5095382;28;20051;-79
2024/01/03 12:37:47;;;;;;;8.60;6.45;;;5.70;61.20;;;;;;5097925;28;20027;-78
2024/01/03 12:40:17;;;;;;;8.80;6.40;;;5.70;61.10;;;;;;5098963;28;20038;-76
2024/01/03 12:42:44;;;;;;;8.20;6.00;;;5.70;61.10;;;;;;5093070;28;20019;-77
2024/01/03 12:45:11;;;;;;;10.30;6.40;;;5.70;61.00;;;;;;5114739;28;20031;-78
2024/01/03 12:47:37;;;;;;;9.90;6.68;;;5.60;60.90;;;;;;5116083;28;20031;-80
2024/01/03 12:50:04;;;;;;;8.77;6.30;;;5.60;61.00;;;;;;5099431;28;20067;-81